Bost Airport


Codes: OABT/BST
Name: Bost Airport
City: Bost
Country: Afghanistan
Elevation: 2464 ft.

Photos at Bost Airport


   Photos courtesy of SpottingLog. You can add your own sightings and photos by signing up for a free trial today.



No photos found.

Weather at Bost Airport


Time (UTC)DescriptionTempratureWindCloud coverageVisibilityPressureHumidity
21-Feb-2024 03:00Clear Sky8°C7 mph, SW2%10000m1018hPa30%
21-Feb-2024 06:00Clear Sky10°C11 mph, SW2%10000m1018hPa26%
21-Feb-2024 09:00Clear Sky14°C16 mph, W1%10000m1015hPa19%
21-Feb-2024 12:00Clear Sky17°C18 mph, W0%10000m1013hPa15%
21-Feb-2024 15:00Clear Sky13°C18 mph, W0%10000m1016hPa19%
21-Feb-2024 18:00Clear Sky10°C16 mph, W0%10000m1017hPa22%
21-Feb-2024 21:00Clear Sky8°C11 mph, SW0%10000m1017hPa27%
22-Feb-2024 00:00Clear Sky6°C9 mph, SW0%10000m1017hPa31%
22-Feb-2024 03:00Clear Sky5°C7 mph, SW0%10000m1020hPa31%
22-Feb-2024 06:00Clear Sky10°C2 mph, SW0%10000m1020hPa23%
22-Feb-2024 09:00Clear Sky14°C2 mph, SE0%10000m1017hPa18%
22-Feb-2024 12:00Clear Sky15°C2 mph, NW0%10000m1016hPa16%
22-Feb-2024 15:00Clear Sky13°C0 mph, NE0%10000m1017hPa22%
22-Feb-2024 18:00Clear Sky11°C4 mph, W0%10000m1018hPa21%
22-Feb-2024 21:00Clear Sky9°C4 mph, W0%10000m1018hPa20%
23-Feb-2024 00:00Clear Sky7°C9 mph, SW0%10000m1019hPa23%
23-Feb-2024 03:00Clear Sky6°C7 mph, SW0%10000m1021hPa27%
23-Feb-2024 06:00Clear Sky11°C4 mph, SW0%10000m1021hPa18%
23-Feb-2024 09:00Clear Sky15°C4 mph, W0%10000m1017hPa12%
23-Feb-2024 12:00Clear Sky16°C7 mph, NW0%10000m1016hPa10%
23-Feb-2024 15:00Clear Sky13°C4 mph, NW0%10000m1017hPa15%
23-Feb-2024 18:00Clear Sky11°C4 mph, W0%10000m1018hPa18%
23-Feb-2024 21:00Clear Sky10°C4 mph, W0%10000m1017hPa19%
24-Feb-2024 00:00Few Clouds9°C4 mph, SW14%10000m1018hPa21%
24-Feb-2024 03:00Overcast Clouds9°C4 mph, SW95%10000m1020hPa22%
24-Feb-2024 06:00Broken Clouds13°C4 mph, SW78%10000m1020hPa16%
24-Feb-2024 09:00Scattered Clouds17°C7 mph, W33%10000m1018hPa13%
24-Feb-2024 12:00Scattered Clouds17°C11 mph, NW50%10000m1016hPa13%
24-Feb-2024 15:00Overcast Clouds15°C4 mph, NW100%10000m1017hPa17%
24-Feb-2024 18:00Overcast Clouds13°C2 mph, SW100%10000m1018hPa19%
24-Feb-2024 21:00Overcast Clouds12°C2 mph, SE100%10000m1017hPa20%
25-Feb-2024 00:00Overcast Clouds11°C4 mph, E100%10000m1016hPa21%
25-Feb-2024 03:00Overcast Clouds11°C7 mph, E100%10000m1018hPa22%
25-Feb-2024 06:00Overcast Clouds16°C7 mph, SE99%10000m1018hPa17%
25-Feb-2024 09:00Overcast Clouds17°C7 mph, SW100%10000m1016hPa16%
25-Feb-2024 12:00Light Rain12°C2 mph, SE100%10000m1017hPa41%
25-Feb-2024 15:00Light Rain12°C13 mph, NE100%10000m1018hPa47%
25-Feb-2024 18:00Light Rain10°C18 mph, NE100%10000m1018hPa68%
25-Feb-2024 21:00Light Rain10°C20 mph, E100%10000m1016hPa60%
26-Feb-2024 00:00Moderate Rain8°C20 mph, E100%4404m1015hPa85%